Ana Sayfa
METAR-TAF:

METAR-TAF

Havaalanları :

Majors Airport

Greenville, Teksas, Amerika Birleşik Devletleri

Enlem: 33-04N, Boylam: 096-04W, yükseklik: 163 m

Güncel hava durumu gözlemi

Rapor saat 03:10 UTC de 37 dakika önce yapıldı.
Rüzgar güneydan 6 kt
Sıcaklık 6°C
Nem 65%
Basınç 1024 hPa
Görüş mesafesi: 16.1 km
Açık gökyüzü

METAR: KGVT 280310Z AUTO 17006KT 10SM CLR 06/00 A3025 RMK AO2

Saat: 21:47 (03:47 UTC)


TAF: eksik

4.000'den fazla havaalanı için hava durumu gözlemleri ve tahminleri (METAR ve TAF raporları).

Kullanılabilir istasyonlar harita üzerinde sarı ve kırmızı noktalarla gösterilir.

İstasyonun adını görmek için fareyi noktanın üzerinde gezdirin.

Sonrasında hava gözlem ve tahminlerini görmek için tıklayın.

Haritayı değiştirmek için: yaklaştırmak için siyah artı işaretli yeşil düğmeye ve uzaklaştırmak için de eksi işaretli düğmeye hızla tıklayın; bitişik haritalar için yeşil okları kullanın.


METAR-TAF: